PWSweather.com
Personal Weather Stations
Station Observations
KOHAVON11
Long Road Station, Avon, OH 44011

Long Road StationAvon, OH 44011

Lat: 41.437, Lon: -82.0477

Elevation: 686

Station Type: Davis Vantage Pro2

http://www.avon-weather.com

Latest ConditionsUpdated 7:48:45 AM EDT Friday, Apr 19, 2019
Currently Today's Max Today's Min Today's Average
Temperature 43.7°F6.5°C 57.8°F14.3°C 43.7°F6.5°C 51.1°F10.6°C
Dew Point 40.7°F4.8°C 53.3°F11.8°C 40.7°F4.8°C 47.7°F8.7°C
Winds 7.0 mph NW11.3 kmh NW 11.0 mph -17.7 kmh - - 2.6 mph 4.2 kmh
Wind Gusts 14.0 mph22.5 kmh 14.0 mph22.5 kmh - -
Humidity 89% 89% 85% 88%
Pressure 29.56 in1001.0 mb 29.60 in1002.4 mb 29.50 in999.0 mb -
Precipitation - 0.14 in3.6 mm - -
Hour Temp Dew Point Humidity Winds Wind Gusts Pressure Precip Precip Rate Daily Precip Total
07:48 AM 43.7°F6.5°C 40.7°F4.8°C 89% 7.0 mph NW11.3 kmh NW 14.0 mph22.5 kmh 29.56 in1001.0 mb 0.04 in1.0 mm 0.00 in0.0 mm 0.14 in3.6 mm
07:43 AM 43.9°F6.6°C 40.9°F4.9°C 89% 5.0 mph NW8.0 kmh NW 12.0 mph19.3 kmh 29.58 in1001.7 mb 0.05 in1.3 mm 0.00 in0.0 mm 0.13 in3.3 mm
07:38 AM 44.0°F6.7°C 41.0°F5.0°C 89% 4.0 mph NNW6.4 kmh NNW 12.0 mph19.3 kmh 29.56 in1001.0 mb 0.07 in1.8 mm 0.00 in0.0 mm 0.13 in3.3 mm
07:33 AM 44.2°F6.8°C 41.2°F5.1°C 89% 3.0 mph NNW4.8 kmh NNW 12.0 mph19.3 kmh 29.57 in1001.4 mb 0.07 in1.8 mm 0.84 in21.3 mm 0.13 in3.3 mm
07:28 AM 44.4°F6.9°C 41.4°F5.2°C 89% 11.0 mph N17.7 kmh N 12.0 mph19.3 kmh 29.57 in1001.4 mb 0.00 in0.0 mm 0.00 in0.0 mm 0.12 in3.0 mm
07:23 AM 44.7°F7.1°C 41.7°F5.4°C 89% Calm Calm 10.0 mph16.1 kmh 29.57 in1001.4 mb 0.00 in0.0 mm 0.00 in0.0 mm 0.12 in3.0 mm
07:18 AM 44.8°F7.1°C 41.8°F5.4°C 89% 3.0 mph NW4.8 kmh NW 10.0 mph16.1 kmh 29.56 in1001.0 mb 0.00 in0.0 mm 0.00 in0.0 mm 0.11 in2.8 mm
07:13 AM 44.9°F7.2°C 41.9°F5.5°C 89% 2.0 mph N3.2 kmh N 10.0 mph16.1 kmh 29.55 in1000.7 mb 0.00 in0.0 mm 0.00 in0.0 mm 0.11 in2.8 mm
07:08 AM 45.1°F7.3°C 42.1°F5.6°C 89% 7.0 mph NE11.3 kmh NE 11.0 mph17.7 kmh 29.54 in1000.3 mb 0.00 in0.0 mm 0.00 in0.0 mm 0.11 in2.8 mm
07:03 AM 45.3°F7.4°C 42.3°F5.7°C 89% 4.0 mph NNE6.4 kmh NNE 11.0 mph17.7 kmh 29.54 in1000.3 mb 0.00 in0.0 mm 0.00 in0.0 mm 0.11 in2.8 mm
06:58 AM 45.6°F7.6°C 42.5°F5.8°C 89% 6.0 mph N9.7 kmh N 11.0 mph17.7 kmh 29.54 in1000.3 mb 0.00 in0.0 mm 0.00 in0.0 mm 0.10 in2.5 mm
06:53 AM 45.8°F7.7°C 42.7°F5.9°C 89% 3.0 mph NE4.8 kmh NE 11.0 mph17.7 kmh 29.53 in1000.0 mb 0.00 in0.0 mm 0.00 in0.0 mm 0.10 in2.5 mm
06:48 AM 46.1°F7.8°C 43.0°F6.1°C 89% 2.0 mph NE3.2 kmh NE 11.0 mph17.7 kmh 29.53 in1000.0 mb 0.04 in1.0 mm 0.00 in0.0 mm 0.10 in2.5 mm
06:43 AM 46.4°F8.0°C 43.3°F6.3°C 89% 7.0 mph NE11.3 kmh NE 11.0 mph17.7 kmh 29.53 in1000.0 mb 0.06 in1.5 mm 0.00 in0.0 mm 0.10 in2.5 mm
06:38 AM 46.7°F8.2°C 43.6°F6.4°C 89% 8.0 mph NE12.9 kmh NE 11.0 mph17.7 kmh 29.53 in1000.0 mb 0.12 in3.0 mm 1.44 in36.6 mm 0.10 in2.5 mm
06:33 AM 47.1°F8.4°C 44.0°F6.7°C 89% 10.0 mph N16.1 kmh N 10.0 mph16.1 kmh 29.53 in1000.0 mb 0.00 in0.0 mm 0.00 in0.0 mm 0.09 in2.3 mm
06:28 AM 47.3°F8.5°C 44.2°F6.8°C 89% 3.0 mph NE4.8 kmh NE 8.0 mph12.9 kmh 29.53 in1000.0 mb 0.00 in0.0 mm 0.00 in0.0 mm 0.08 in2.0 mm
06:23 AM 47.5°F8.6°C 44.4°F6.9°C 89% 5.0 mph NNE8.0 kmh NNE 8.0 mph12.9 kmh 29.53 in1000.0 mb 0.00 in0.0 mm 0.00 in0.0 mm 0.08 in2.0 mm
06:18 AM 47.9°F8.8°C 44.8°F7.1°C 89% 4.0 mph NNE6.4 kmh NNE 8.0 mph12.9 kmh 29.53 in1000.0 mb 0.00 in0.0 mm 0.00 in0.0 mm 0.08 in2.0 mm
06:13 AM 48.6°F9.2°C 45.5°F7.5°C 89% 7.0 mph NNE11.3 kmh NNE 7.0 mph11.3 kmh 29.53 in1000.0 mb 0.00 in0.0 mm 0.00 in0.0 mm 0.08 in2.0 mm
06:08 AM 49.2°F9.6°C 46.1°F7.8°C 89% 6.0 mph NNW9.7 kmh NNW 7.0 mph11.3 kmh 29.52 in999.7 mb 0.00 in0.0 mm 0.00 in0.0 mm 0.08 in2.0 mm
06:03 AM 49.6°F9.8°C 46.5°F8.1°C 89% 3.0 mph N4.8 kmh N 7.0 mph11.3 kmh 29.52 in999.7 mb 0.00 in0.0 mm 0.00 in0.0 mm 0.08 in2.0 mm
05:58 AM 49.8°F9.9°C 46.7°F8.2°C 89% 1.0 mph NNW1.6 kmh NNW 7.0 mph11.3 kmh 29.52 in999.7 mb 0.00 in0.0 mm 0.00 in0.0 mm 0.08 in2.0 mm
05:53 AM 49.9°F9.9°C 46.8°F8.2°C 89% 4.0 mph N6.4 kmh N 7.0 mph11.3 kmh 29.51 in999.3 mb 0.00 in0.0 mm 0.00 in0.0 mm 0.08 in2.0 mm
05:48 AM 50.0°F10.0°C 46.9°F8.3°C 89% 4.0 mph NNW6.4 kmh NNW 7.0 mph11.3 kmh 29.51 in999.3 mb 0.00 in0.0 mm 0.00 in0.0 mm 0.08 in2.0 mm
05:43 AM 50.1°F10.1°C 47.0°F8.3°C 89% 3.0 mph NNE4.8 kmh NNE 8.0 mph12.9 kmh 29.50 in999.0 mb 0.00 in0.0 mm 0.00 in0.0 mm 0.08 in2.0 mm
05:38 AM 50.1°F10.1°C 47.0°F8.3°C 89% 2.0 mph NE3.2 kmh NE 8.0 mph12.9 kmh 29.50 in999.0 mb 0.00 in0.0 mm 0.00 in0.0 mm 0.07 in1.8 mm
05:33 AM 50.2°F10.1°C 47.1°F8.4°C 89% 1.0 mph NNE1.6 kmh NNE 8.0 mph12.9 kmh 29.51 in999.3 mb 0.00 in0.0 mm 0.00 in0.0 mm 0.07 in1.8 mm
05:28 AM 50.2°F10.1°C 47.1°F8.4°C 89% 3.0 mph NNE4.8 kmh NNE 8.0 mph12.9 kmh 29.51 in999.3 mb 0.00 in0.0 mm 0.00 in0.0 mm 0.07 in1.8 mm
05:23 AM 50.2°F10.1°C 47.1°F8.4°C 89% 1.0 mph NE1.6 kmh NE 7.0 mph11.3 kmh 29.51 in999.3 mb 0.00 in0.0 mm 0.00 in0.0 mm 0.07 in1.8 mm
05:18 AM 50.2°F10.1°C 47.1°F8.4°C 89% 1.0 mph NE1.6 kmh NE 7.0 mph11.3 kmh 29.51 in999.3 mb 0.00 in0.0 mm 0.00 in0.0 mm 0.07 in1.8 mm
05:13 AM 50.2°F10.1°C 47.1°F8.4°C 89% 4.0 mph NNE6.4 kmh NNE 7.0 mph11.3 kmh 29.52 in999.7 mb 0.00 in0.0 mm 0.00 in0.0 mm 0.07 in1.8 mm
05:08 AM 50.3°F10.2°C 47.2°F8.4°C 89% 2.0 mph NNE3.2 kmh NNE 8.0 mph12.9 kmh 29.52 in999.7 mb 0.00 in0.0 mm 0.00 in0.0 mm 0.07 in1.8 mm
05:03 AM 50.3°F10.2°C 47.2°F8.4°C 89% 3.0 mph NE4.8 kmh NE 8.0 mph12.9 kmh 29.53 in1000.0 mb 0.00 in0.0 mm 0.00 in0.0 mm 0.07 in1.8 mm
04:58 AM 50.3°F10.2°C 47.2°F8.4°C 89% 2.0 mph NE3.2 kmh NE 8.0 mph12.9 kmh 29.53 in1000.0 mb 0.00 in0.0 mm 0.00 in0.0 mm 0.06 in1.5 mm
04:53 AM 50.3°F10.2°C 47.2°F8.4°C 89% 4.0 mph NE6.4 kmh NE 8.0 mph12.9 kmh 29.54 in1000.3 mb 0.04 in1.0 mm 0.00 in0.0 mm 0.06 in1.5 mm
04:48 AM 50.3°F10.2°C 47.2°F8.4°C 89% 2.0 mph ENE3.2 kmh ENE 7.0 mph11.3 kmh 29.54 in1000.3 mb 0.05 in1.3 mm 0.00 in0.0 mm 0.06 in1.5 mm
04:43 AM 50.3°F10.2°C 47.2°F8.4°C 89% 2.0 mph NE3.2 kmh NE 7.0 mph11.3 kmh 29.55 in1000.7 mb 0.05 in1.3 mm 0.00 in0.0 mm 0.06 in1.5 mm
04:38 AM 50.3°F10.2°C 47.2°F8.4°C 89% 2.0 mph NE3.2 kmh NE 7.0 mph11.3 kmh 29.55 in1000.7 mb 0.05 in1.3 mm 0.00 in0.0 mm 0.06 in1.5 mm
04:33 AM 50.3°F10.2°C 47.2°F8.4°C 89% 1.0 mph ENE1.6 kmh ENE 7.0 mph11.3 kmh 29.56 in1001.0 mb 0.07 in1.8 mm 0.00 in0.0 mm 0.05 in1.3 mm
04:28 AM 50.5°F10.3°C 47.4°F8.6°C 89% 1.0 mph NE1.6 kmh NE 7.0 mph11.3 kmh 29.55 in1000.7 mb 0.13 in3.3 mm 0.96 in24.4 mm 0.05 in1.3 mm
04:23 AM 50.7°F10.4°C 47.6°F8.7°C 89% 2.0 mph NNE3.2 kmh NNE 7.0 mph11.3 kmh 29.55 in1000.7 mb 0.05 in1.3 mm 0.00 in0.0 mm 0.04 in1.0 mm
04:18 AM 50.8°F10.4°C 47.7°F8.7°C 89% 1.0 mph N1.6 kmh N 7.0 mph11.3 kmh 29.55 in1000.7 mb 0.06 in1.5 mm 0.00 in0.0 mm 0.03 in0.8 mm
04:13 AM 50.9°F10.5°C 47.8°F8.8°C 89% 2.0 mph NNE3.2 kmh NNE 7.0 mph11.3 kmh 29.55 in1000.7 mb 0.08 in2.0 mm 0.00 in0.0 mm 0.03 in0.8 mm
04:08 AM 51.0°F10.6°C 47.9°F8.8°C 89% 3.0 mph NNW4.8 kmh NNW 6.0 mph9.7 kmh 29.56 in1001.0 mb 0.08 in2.0 mm 0.00 in0.0 mm 0.02 in0.5 mm
04:03 AM 51.1°F10.6°C 48.0°F8.9°C 89% Calm Calm 6.0 mph9.7 kmh 29.56 in1001.0 mb 0.13 in3.3 mm 0.14 in3.6 mm 0.02 in0.5 mm
03:58 AM 51.2°F10.7°C 48.1°F8.9°C 89% 2.0 mph NNW3.2 kmh NNW 6.0 mph9.7 kmh 29.56 in1001.0 mb 0.00 in0.0 mm 0.00 in0.0 mm 0.01 in0.3 mm
03:53 AM 51.3°F10.7°C 48.2°F9.0°C 89% 1.0 mph NW1.6 kmh NW 6.0 mph9.7 kmh 29.56 in1001.0 mb 0.00 in0.0 mm 0.00 in0.0 mm 0.00 in0.0 mm
03:48 AM 51.3°F10.7°C 48.2°F9.0°C 89% 2.0 mph N3.2 kmh N 6.0 mph9.7 kmh 29.55 in1000.7 mb 0.00 in0.0 mm 0.00 in0.0 mm 0.00 in0.0 mm
03:43 AM 51.3°F10.7°C 48.2°F9.0°C 89% 1.0 mph N1.6 kmh N 6.0 mph9.7 kmh 29.55 in1000.7 mb 0.00 in0.0 mm 0.00 in0.0 mm 0.00 in0.0 mm
03:38 AM 51.3°F10.7°C 48.2°F9.0°C 89% 3.0 mph N4.8 kmh N 3.0 mph4.8 kmh 29.55 in1000.7 mb 0.00 in0.0 mm 0.00 in0.0 mm 0.00 in0.0 mm
03:33 AM 51.3°F10.7°C 48.2°F9.0°C 89% 2.0 mph NNE3.2 kmh NNE 2.0 mph3.2 kmh 29.56 in1001.0 mb 0.00 in0.0 mm 0.00 in0.0 mm 0.00 in0.0 mm
03:28 AM 51.4°F10.8°C 48.3°F9.1°C 89% 1.0 mph NNE1.6 kmh NNE 6.0 mph9.7 kmh 29.55 in1000.7 mb 0.00 in0.0 mm 0.00 in0.0 mm 0.00 in0.0 mm
03:23 AM 51.4°F10.8°C 47.9°F8.8°C 88% Calm Calm 6.0 mph9.7 kmh 29.56 in1001.0 mb 0.00 in0.0 mm 0.00 in0.0 mm 0.00 in0.0 mm
03:18 AM 51.5°F10.8°C 48.0°F8.9°C 88% 2.0 mph N3.2 kmh N 6.0 mph9.7 kmh 29.55 in1000.7 mb 0.00 in0.0 mm 0.00 in0.0 mm 0.00 in0.0 mm
03:13 AM 51.6°F10.9°C 48.1°F8.9°C 88% 1.0 mph NE1.6 kmh NE 7.0 mph11.3 kmh 29.55 in1000.7 mb 0.00 in0.0 mm 0.00 in0.0 mm 0.00 in0.0 mm
03:08 AM 51.9°F11.1°C 48.4°F9.1°C 88% 5.0 mph N8.0 kmh N 7.0 mph11.3 kmh 29.55 in1000.7 mb 0.00 in0.0 mm 0.00 in0.0 mm 0.00 in0.0 mm
03:03 AM 52.0°F11.1°C 48.5°F9.2°C 88% 2.0 mph NE3.2 kmh NE 7.0 mph11.3 kmh 29.56 in1001.0 mb 0.00 in0.0 mm 0.00 in0.0 mm 0.00 in0.0 mm
02:58 AM 52.2°F11.2°C 48.7°F9.3°C 88% 1.0 mph NNE1.6 kmh NNE 7.0 mph11.3 kmh 29.57 in1001.4 mb 0.00 in0.0 mm 0.00 in0.0 mm 0.00 in0.0 mm
02:53 AM 52.2°F11.2°C 48.7°F9.3°C 88% 2.0 mph N3.2 kmh N 4.0 mph6.4 kmh 29.57 in1001.4 mb 0.00 in0.0 mm 0.00 in0.0 mm 0.00 in0.0 mm
02:48 AM 52.3°F11.3°C 48.8°F9.3°C 88% 2.0 mph N3.2 kmh N 2.0 mph3.2 kmh 29.57 in1001.4 mb 0.00 in0.0 mm 0.00 in0.0 mm 0.00 in0.0 mm
02:43 AM 52.4°F11.3°C 48.9°F9.4°C 88% Calm Calm -- 29.58 in1001.7 mb 0.00 in0.0 mm 0.00 in0.0 mm 0.00 in0.0 mm
02:38 AM 52.4°F11.3°C 48.9°F9.4°C 88% 1.0 mph N1.6 kmh N 1.0 mph1.6 kmh 29.58 in1001.7 mb 0.00 in0.0 mm 0.00 in0.0 mm 0.00 in0.0 mm
02:33 AM 52.5°F11.4°C 49.0°F9.4°C 88% Calm Calm 5.0 mph8.0 kmh 29.58 in1001.7 mb 0.00 in0.0 mm 0.00 in0.0 mm 0.00 in0.0 mm
02:28 AM 52.5°F11.4°C 49.0°F9.4°C 88% 2.0 mph N3.2 kmh N 2.0 mph3.2 kmh 29.58 in1001.7 mb 0.00 in0.0 mm 0.00 in0.0 mm 0.00 in0.0 mm
02:23 AM 52.6°F11.4°C 49.1°F9.5°C 88% Calm Calm 6.0 mph9.7 kmh 29.58 in1001.7 mb 0.00 in0.0 mm 0.00 in0.0 mm 0.00 in0.0 mm
02:18 AM 52.7°F11.5°C 49.2°F9.6°C 88% Calm Calm 6.0 mph9.7 kmh 29.58 in1001.7 mb 0.00 in0.0 mm 0.00 in0.0 mm 0.00 in0.0 mm
02:13 AM 52.7°F11.5°C 49.2°F9.6°C 88% Calm Calm 6.0 mph9.7 kmh 29.58 in1001.7 mb 0.00 in0.0 mm 0.00 in0.0 mm 0.00 in0.0 mm
02:08 AM 52.8°F11.6°C 49.3°F9.6°C 88% 1.0 mph NW1.6 kmh NW 6.0 mph9.7 kmh 29.57 in1001.4 mb 0.00 in0.0 mm 0.00 in0.0 mm 0.00 in0.0 mm
02:03 AM 52.9°F11.6°C 49.4°F9.7°C 88% Calm Calm 4.0 mph6.4 kmh 29.57 in1001.4 mb 0.00 in0.0 mm 0.00 in0.0 mm 0.00 in0.0 mm
01:58 AM 53.0°F11.7°C 49.5°F9.7°C 88% 1.0 mph NNW1.6 kmh NNW 6.0 mph9.7 kmh 29.58 in1001.7 mb 0.00 in0.0 mm 0.00 in0.0 mm 0.00 in0.0 mm
01:53 AM 53.1°F11.7°C 49.6°F9.8°C 88% 3.0 mph NNW4.8 kmh NNW 6.0 mph9.7 kmh 29.57 in1001.4 mb 0.00 in0.0 mm 0.00 in0.0 mm 0.00 in0.0 mm
01:48 AM 53.4°F11.9°C 49.6°F9.8°C 87% 2.0 mph WNW3.2 kmh WNW 6.0 mph9.7 kmh 29.58 in1001.7 mb 0.00 in0.0 mm 0.00 in0.0 mm 0.00 in0.0 mm
01:43 AM 53.6°F12.0°C 50.1°F10.1°C 88% 3.0 mph WNW4.8 kmh WNW 6.0 mph9.7 kmh 29.59 in1002.0 mb 0.00 in0.0 mm 0.00 in0.0 mm 0.00 in0.0 mm
01:38 AM 53.9°F12.2°C 50.1°F10.1°C 87% 3.0 mph NW4.8 kmh NW 8.0 mph12.9 kmh 29.59 in1002.0 mb 0.00 in0.0 mm 0.00 in0.0 mm 0.00 in0.0 mm
01:33 AM 54.2°F12.3°C 50.4°F10.2°C 87% 2.0 mph NW3.2 kmh NW 8.0 mph12.9 kmh 29.59 in1002.0 mb 0.00 in0.0 mm 0.00 in0.0 mm 0.00 in0.0 mm
01:28 AM 54.5°F12.5°C 50.7°F10.4°C 87% 1.0 mph WNW1.6 kmh WNW 8.0 mph12.9 kmh 29.59 in1002.0 mb 0.00 in0.0 mm 0.00 in0.0 mm 0.00 in0.0 mm
01:23 AM 54.8°F12.7°C 51.0°F10.6°C 87% 3.0 mph NW4.8 kmh NW 8.0 mph12.9 kmh 29.59 in1002.0 mb 0.00 in0.0 mm 0.00 in0.0 mm 0.00 in0.0 mm
01:18 AM 55.1°F12.8°C 51.3°F10.7°C 87% 2.0 mph WNW3.2 kmh WNW 8.0 mph12.9 kmh 29.59 in1002.0 mb 0.00 in0.0 mm 0.00 in0.0 mm 0.00 in0.0 mm
01:13 AM 55.5°F13.1°C 51.7°F10.9°C 87% 4.0 mph W6.4 kmh W 8.0 mph12.9 kmh 29.59 in1002.0 mb 0.00 in0.0 mm 0.00 in0.0 mm 0.00 in0.0 mm
01:08 AM 55.9°F13.3°C 52.0°F11.1°C 87% 8.0 mph WNW12.9 kmh WNW 8.0 mph12.9 kmh 29.60 in1002.4 mb 0.00 in0.0 mm 0.00 in0.0 mm 0.00 in0.0 mm
01:03 AM 56.0°F13.3°C 52.1°F11.2°C 87% 4.0 mph WNW6.4 kmh WNW 7.0 mph11.3 kmh 29.60 in1002.4 mb 0.00 in0.0 mm 0.00 in0.0 mm 0.00 in0.0 mm
12:58 AM 56.1°F13.4°C 52.2°F11.2°C 87% 3.0 mph WSW4.8 kmh WSW 4.0 mph6.4 kmh 29.59 in1002.0 mb 0.00 in0.0 mm 0.00 in0.0 mm 0.00 in0.0 mm
12:53 AM 56.2°F13.4°C 52.0°F11.1°C 86% 1.0 mph N1.6 kmh N 2.0 mph3.2 kmh 29.57 in1001.4 mb 0.00 in0.0 mm 0.00 in0.0 mm 0.00 in0.0 mm
12:48 AM 56.3°F13.5°C 52.1°F11.2°C 86% 1.0 mph 1.6 kmh 2.0 mph3.2 kmh 29.56 in1001.0 mb 0.00 in0.0 mm 0.00 in0.0 mm 0.00 in0.0 mm
12:43 AM 56.5°F13.6°C 52.3°F11.3°C 86% 2.0 mph NW3.2 kmh NW 8.0 mph12.9 kmh 29.57 in1001.4 mb 0.00 in0.0 mm 0.00 in0.0 mm 0.00 in0.0 mm
12:38 AM 56.8°F13.8°C 52.6°F11.4°C 86% 3.0 mph W4.8 kmh W 8.0 mph12.9 kmh 29.58 in1001.7 mb 0.00 in0.0 mm 0.00 in0.0 mm 0.00 in0.0 mm
12:33 AM 57.0°F13.9°C 52.8°F11.6°C 86% 3.0 mph WNW4.8 kmh WNW 8.0 mph12.9 kmh 29.59 in1002.0 mb 0.00 in0.0 mm 0.00 in0.0 mm 0.00 in0.0 mm
12:28 AM 57.2°F14.0°C 53.0°F11.7°C 86% 3.0 mph WNW4.8 kmh WNW 5.0 mph8.0 kmh 29.59 in1002.0 mb 0.00 in0.0 mm 0.00 in0.0 mm 0.00 in0.0 mm
12:23 AM 57.3°F14.1°C 52.8°F11.6°C 85% 2.0 mph WNW3.2 kmh WNW 5.0 mph8.0 kmh 29.59 in1002.0 mb 0.00 in0.0 mm 0.00 in0.0 mm 0.00 in0.0 mm
12:18 AM 57.4°F14.1°C 52.9°F11.6°C 85% 1.0 mph NW1.6 kmh NW 4.0 mph6.4 kmh 29.59 in1002.0 mb 0.00 in0.0 mm 0.00 in0.0 mm 0.00 in0.0 mm
12:13 AM 57.5°F14.2°C 53.0°F11.7°C 85% Calm Calm -- 29.59 in1002.0 mb 0.00 in0.0 mm 0.00 in0.0 mm 0.00 in0.0 mm
12:08 AM 57.6°F14.2°C 53.1°F11.7°C 85% Calm Calm 7.0 mph11.3 kmh 29.59 in1002.0 mb 0.00 in0.0 mm 0.00 in0.0 mm 0.00 in0.0 mm
12:03 AM 57.8°F14.3°C 53.3°F11.8°C 85% Calm Calm 7.0 mph11.3 kmh 29.58 in1001.7 mb 0.00 in0.0 mm 0.00 in0.0 mm 0.00 in0.0 mm